createdAt,value
2018-11-23T00:01:24.179Z,39.10
2018-11-23T00:03:53.294Z,37.40
2018-11-23T00:06:22.370Z,38.00
2018-11-23T00:08:52.684Z,40.17
2018-11-23T00:11:22.601Z,39.57
2018-11-23T00:13:51.621Z,37.53
2018-11-23T00:16:24.903Z,39.23
2018-11-23T00:18:55.747Z,37.93
2018-11-23T00:21:25.894Z,37.43
2018-11-23T00:23:55.200Z,39.67
2018-11-23T00:26:25.334Z,36.73
2018-11-23T00:28:55.154Z,37.73
2018-11-23T00:31:24.419Z,37.27
2018-11-23T00:33:53.506Z,35.97
2018-11-23T00:36:24.297Z,37.10
2018-11-23T00:38:54.318Z,36.63
2018-11-23T00:41:22.934Z,39.17
2018-11-23T00:43:51.621Z,39.27
2018-11-23T00:46:20.242Z,37.63
2018-11-23T00:48:48.991Z,38.30
2018-11-23T00:51:17.681Z,38.67
2018-11-23T00:53:46.337Z,37.03
2018-11-23T00:56:14.934Z,40.07
2018-11-23T00:58:43.571Z,36.00
2018-11-23T01:01:12.211Z,35.10
2018-11-23T01:03:40.839Z,35.30
2018-11-23T01:06:09.445Z,38.43
2018-11-23T01:08:38.102Z,39.77
2018-11-23T01:11:07.046Z,36.60
2018-11-23T01:13:35.681Z,38.83
2018-11-23T01:16:04.333Z,39.43
2018-11-23T01:18:32.970Z,34.13
2018-11-23T01:21:01.569Z,38.17
2018-11-23T01:23:30.217Z,36.53
2018-11-23T01:25:58.844Z,35.83
2018-11-23T01:28:27.522Z,35.87
2018-11-23T01:30:56.119Z,37.93
2018-11-23T01:33:24.802Z,35.10
2018-11-23T01:35:53.445Z,40.57
2018-11-23T01:38:22.147Z,35.47
2018-11-23T01:40:50.795Z,34.20
2018-11-23T01:43:19.505Z,34.20
2018-11-23T01:45:48.148Z,36.67
2018-11-23T01:48:16.804Z,35.90
2018-11-23T01:50:45.413Z,36.20
2018-11-23T01:53:14.067Z,33.80
2018-11-23T01:55:42.681Z,36.63
2018-11-23T01:58:11.334Z,37.00
2018-11-23T02:00:39.938Z,35.33
2018-11-23T02:03:08.522Z,32.73
2018-11-23T02:05:37.063Z,34.77
2018-11-23T02:08:06.038Z,35.03
2018-11-23T02:10:34.595Z,33.07
2018-11-23T02:13:03.252Z,38.57
2018-11-23T02:15:31.794Z,37.60
2018-11-23T02:18:00.365Z,37.80
2018-11-23T02:20:28.939Z,36.93
2018-11-23T02:22:57.477Z,35.23
2018-11-23T02:25:26.080Z,38.30
2018-11-23T02:27:54.623Z,35.57
2018-11-23T02:30:24.454Z,34.40
2018-11-23T02:32:53.035Z,37.73
2018-11-23T02:35:21.644Z,36.83
2018-11-23T02:37:50.193Z,36.43
2018-11-23T02:40:19.827Z,36.47
2018-11-23T02:42:48.486Z,35.93
2018-11-23T02:45:18.739Z,35.27
2018-11-23T02:47:47.895Z,36.80
2018-11-23T02:50:16.610Z,39.83
2018-11-23T02:52:45.651Z,34.07
2018-11-23T02:55:15.522Z,37.47
2018-11-23T02:57:44.075Z,35.50
2018-11-23T03:00:16.509Z,35.17
2018-11-23T03:02:45.138Z,36.50
2018-11-23T03:05:15.898Z,37.57
2018-11-23T03:07:44.602Z,35.40
2018-11-23T03:10:14.727Z,33.97
2018-11-23T03:12:44.071Z,34.60
2018-11-23T03:15:15.074Z,35.37
2018-11-23T03:17:44.542Z,37.80
2018-11-23T03:20:16.001Z,37.13
2018-11-23T03:22:44.563Z,36.10
2018-11-23T03:25:14.322Z,38.67
2018-11-23T03:27:42.902Z,40.17
2018-11-23T03:30:15.489Z,35.80
2018-11-23T03:32:44.731Z,39.03
2018-11-23T03:35:13.465Z,35.23
2018-11-23T03:37:42.254Z,39.83
2018-11-23T03:40:10.935Z,37.87
2018-11-23T03:42:39.546Z,36.37
2018-11-23T03:45:10.266Z,38.93
2018-11-23T03:47:38.912Z,38.60
2018-11-23T03:50:08.426Z,37.07
2018-11-23T03:52:37.089Z,34.73
2018-11-23T03:55:05.803Z,37.10
2018-11-23T03:57:34.453Z,35.73
2018-11-23T04:00:03.169Z,35.67
2018-11-23T04:02:31.776Z,35.80
2018-11-23T04:05:00.526Z,36.60
2018-11-23T04:07:29.156Z,37.20
2018-11-23T04:09:57.847Z,40.17
2018-11-23T04:12:26.429Z,36.67
2018-11-23T04:14:55.116Z,35.83
2018-11-23T04:17:23.710Z,35.13
2018-11-23T04:19:52.307Z,37.20
2018-11-23T04:22:20.960Z,35.80
2018-11-23T04:24:49.569Z,35.70
2018-11-23T04:27:18.217Z,37.17
2018-11-23T04:29:46.826Z,38.27
2018-11-23T04:32:15.474Z,37.00
2018-11-23T04:34:44.088Z,33.33
2018-11-23T04:37:12.810Z,35.43
2018-11-23T04:39:41.430Z,39.37
2018-11-23T04:42:10.092Z,36.63
2018-11-23T04:44:38.754Z,39.50
2018-11-23T04:47:07.446Z,37.00
2018-11-23T04:49:36.056Z,35.60
2018-11-23T04:52:04.713Z,38.23
2018-11-23T04:54:33.369Z,35.23
2018-11-23T04:57:02.012Z,34.80
2018-11-23T04:59:30.605Z,36.77
2018-11-23T05:01:59.229Z,34.67
2018-11-23T05:04:27.829Z,34.90
2018-11-23T05:06:56.490Z,35.03
2018-11-23T05:09:25.095Z,35.13
2018-11-23T05:11:53.780Z,35.63
2018-11-23T05:14:22.378Z,36.93
2018-11-23T05:16:51.017Z,35.53
2018-11-23T05:19:19.630Z,32.93
2018-11-23T05:21:48.290Z,36.10
2018-11-23T05:24:16.902Z,36.57
2018-11-23T05:26:45.747Z,38.80
2018-11-23T05:29:14.614Z,33.00
2018-11-23T05:31:43.266Z,37.00
2018-11-23T05:34:11.914Z,36.83
2018-11-23T05:36:40.928Z,35.40
2018-11-23T05:39:10.183Z,34.43
2018-11-23T05:41:39.555Z,34.40
2018-11-23T05:44:08.944Z,36.40
2018-11-23T05:46:37.965Z,35.87
2018-11-23T05:49:06.801Z,36.50
2018-11-23T05:51:37.082Z,35.70
2018-11-23T05:54:05.858Z,33.97
2018-11-23T05:56:34.488Z,35.20
2018-11-23T05:59:03.107Z,34.03
2018-11-23T06:01:31.758Z,33.33
2018-11-23T06:04:00.399Z,36.93
2018-11-23T06:06:29.053Z,37.07
2018-11-23T06:08:57.731Z,35.13
2018-11-23T06:11:26.325Z,36.67
2018-11-23T06:13:54.967Z,36.97
2018-11-23T06:16:23.581Z,33.73
2018-11-23T06:18:52.294Z,34.43
2018-11-23T06:21:21.751Z,35.00
2018-11-23T06:23:50.451Z,35.57
2018-11-23T06:26:22.368Z,35.10
2018-11-23T06:28:51.525Z,38.70
2018-11-23T06:31:20.133Z,37.90
2018-11-23T06:33:49.606Z,35.30
2018-11-23T06:36:18.633Z,38.63
2018-11-23T06:38:47.280Z,42.23
2018-11-23T06:41:15.906Z,41.33
2018-11-23T06:43:44.621Z,39.13
2018-11-23T06:46:13.842Z,44.57
2018-11-23T06:48:42.617Z,42.93
2018-11-23T06:51:17.961Z,50.93
2018-11-23T06:53:46.846Z,49.57
2018-11-23T06:56:15.442Z,54.83
2018-11-23T06:58:44.049Z,47.73
2018-11-23T07:01:13.162Z,40.80
2018-11-23T07:03:41.818Z,44.93
2018-11-23T07:06:10.439Z,51.30
2018-11-23T07:08:39.070Z,56.47
2018-11-23T07:11:07.707Z,54.67
2018-11-23T07:13:36.393Z,57.30
2018-11-23T07:16:05.073Z,56.43
2018-11-23T07:18:34.297Z,50.60
2018-11-23T07:21:02.865Z,54.00
2018-11-23T07:23:38.392Z,51.33
2018-11-23T07:26:07.195Z,49.13
2018-11-23T07:28:35.814Z,52.83
2018-11-23T07:31:05.328Z,52.57
2018-11-23T07:33:34.186Z,55.07
2018-11-23T07:36:02.766Z,53.60
2018-11-23T07:38:31.667Z,51.67
2018-11-23T07:41:11.392Z,48.03
2018-11-23T07:43:40.058Z,50.20
2018-11-23T07:46:08.674Z,55.33
2018-11-23T07:48:37.307Z,50.33
2018-11-23T07:51:06.431Z,52.77
2018-11-23T07:53:35.034Z,43.83
2018-11-23T07:56:03.617Z,44.47
2018-11-23T07:58:39.312Z,42.93
2018-11-23T08:01:08.152Z,42.10
2018-11-23T08:03:36.834Z,43.97
2018-11-23T08:06:05.513Z,45.83
2018-11-23T08:08:34.148Z,43.47
2018-11-23T08:11:06.711Z,42.10
2018-11-23T08:13:35.381Z,43.77
2018-11-23T08:16:08.825Z,44.33
2018-11-23T08:18:37.571Z,46.93
2018-11-23T08:21:12.451Z,43.57
2018-11-23T08:23:47.434Z,41.43
2018-11-23T08:26:16.301Z,40.77
2018-11-23T08:28:48.458Z,44.30
2018-11-23T08:31:17.157Z,42.53
2018-11-23T08:33:45.805Z,37.37
2018-11-23T08:36:14.380Z,37.33
2018-11-23T08:38:42.998Z,39.43
2018-11-23T08:41:16.383Z,47.60
2018-11-23T08:43:45.203Z,40.13
2018-11-23T08:46:13.782Z,37.80
2018-11-23T08:48:42.410Z,34.70
2018-11-23T08:51:10.991Z,34.43
2018-11-23T08:53:39.719Z,34.60
2018-11-23T08:56:09.443Z,33.00
2018-11-23T08:58:38.003Z,33.30
2018-11-23T09:01:07.906Z,32.83
2018-11-23T09:03:36.487Z,31.63
2018-11-23T09:06:05.121Z,33.60
2018-11-23T09:08:33.765Z,32.17
2018-11-23T09:11:02.572Z,34.17
2018-11-23T09:13:31.324Z,33.63
2018-11-23T09:15:59.996Z,33.10
2018-11-23T09:18:28.623Z,33.87
2018-11-23T09:20:57.259Z,31.73
2018-11-23T09:23:25.854Z,34.30
2018-11-23T09:25:54.566Z,32.93
2018-11-23T09:28:23.162Z,32.70
2018-11-23T09:30:51.768Z,33.10
2018-11-23T09:33:20.397Z,31.37
2018-11-23T09:35:49.058Z,32.57
2018-11-23T09:38:17.750Z,32.37
2018-11-23T09:40:46.370Z,33.73
2018-11-23T09:43:14.957Z,31.77
2018-11-23T09:45:43.615Z,34.17
2018-11-23T09:48:12.213Z,32.23
2018-11-23T09:50:40.852Z,33.80
2018-11-23T09:53:09.467Z,31.73
2018-11-23T09:55:38.726Z,31.67
2018-11-23T09:58:07.298Z,32.00
2018-11-23T10:00:37.176Z,31.43
2018-11-23T10:03:08.798Z,31.47
2018-11-23T10:05:38.201Z,30.57
2018-11-23T10:08:12.230Z,31.93
2018-11-23T10:10:46.743Z,32.13
2018-11-23T10:13:16.691Z,31.80
2018-11-23T10:15:48.858Z,29.67
2018-11-23T10:18:17.440Z,29.80
2018-11-23T10:20:54.068Z,30.10
2018-11-23T10:23:24.575Z,32.23
2018-11-23T10:25:55.707Z,31.67
2018-11-23T10:28:27.454Z,32.00
2018-11-23T10:30:56.262Z,30.10
2018-11-23T10:33:29.964Z,29.13
2018-11-23T10:36:00.735Z,30.23
2018-11-23T10:38:31.198Z,30.13
2018-11-23T10:40:59.926Z,28.57
2018-11-23T10:43:28.512Z,28.40
2018-11-23T10:46:04.649Z,28.87
2018-11-23T10:48:34.108Z,28.13
2018-11-23T10:51:07.597Z,28.90
2018-11-23T10:53:38.241Z,29.40
2018-11-23T10:56:07.525Z,27.47
2018-11-23T10:58:41.775Z,29.30
2018-11-23T11:01:18.908Z,27.77
2018-11-23T11:03:55.291Z,27.13
2018-11-23T11:06:30.442Z,28.37
2018-11-23T11:09:03.275Z,26.40
2018-11-23T11:11:39.021Z,27.20
2018-11-23T11:14:14.239Z,26.77
2018-11-23T11:16:45.923Z,29.40
2018-11-23T11:19:14.487Z,27.30
2018-11-23T11:21:43.097Z,27.53
2018-11-23T11:24:11.687Z,26.53
2018-11-23T11:26:40.314Z,26.83
2018-11-23T11:29:08.901Z,26.40
2018-11-23T11:31:37.534Z,27.77
2018-11-23T11:34:06.374Z,26.13
2018-11-23T11:36:35.000Z,26.20
2018-11-23T11:39:05.035Z,25.03
2018-11-23T11:41:33.639Z,25.67
2018-11-23T11:44:02.324Z,24.60
2018-11-23T11:46:30.960Z,25.57
2018-11-23T11:48:59.530Z,24.40
2018-11-23T11:51:28.142Z,25.30
2018-11-23T11:53:56.740Z,25.20
2018-11-23T11:56:26.078Z,26.33
2018-11-23T11:58:54.651Z,26.27
2018-11-23T12:01:24.957Z,23.97
2018-11-23T12:03:53.609Z,22.80
2018-11-23T12:06:22.188Z,23.37
2018-11-23T12:08:50.878Z,23.70
2018-11-23T12:11:19.555Z,23.73
2018-11-23T12:13:48.202Z,23.43
2018-11-23T12:16:16.791Z,22.37
2018-11-23T12:18:45.420Z,22.03
2018-11-23T12:21:14.022Z,22.93
2018-11-23T12:23:42.850Z,22.20
2018-11-23T12:26:11.447Z,22.23
2018-11-23T12:28:40.060Z,22.10
2018-11-23T12:31:08.678Z,21.23
2018-11-23T12:33:37.784Z,21.70
2018-11-23T12:36:06.421Z,21.53
2018-11-23T12:38:35.018Z,21.87
2018-11-23T12:41:03.598Z,21.80
2018-11-23T12:43:32.217Z,22.60
2018-11-23T12:46:00.818Z,22.17
2018-11-23T12:48:29.426Z,20.43
2018-11-23T12:50:58.008Z,19.97
2018-11-23T12:53:26.643Z,20.07
2018-11-23T12:55:55.226Z,21.93
2018-11-23T12:58:23.839Z,21.73
2018-11-23T13:00:52.379Z,20.03
2018-11-23T13:03:21.002Z,19.60
2018-11-23T13:05:49.570Z,18.97
2018-11-23T13:08:18.204Z,19.07
2018-11-23T13:10:46.822Z,18.33
2018-11-23T13:13:15.444Z,18.77
2018-11-23T13:15:44.029Z,17.93
2018-11-23T13:18:12.797Z,18.77
2018-11-23T13:20:42.074Z,18.97
2018-11-23T13:23:10.996Z,20.40
2018-11-23T13:25:39.575Z,20.10
2018-11-23T13:28:08.213Z,20.03
2018-11-23T13:30:37.316Z,20.47
2018-11-23T13:33:06.913Z,21.53
2018-11-23T13:35:35.494Z,19.53
2018-11-23T13:38:07.589Z,21.20
2018-11-23T13:40:36.257Z,19.93
2018-11-23T13:43:06.820Z,21.67
2018-11-23T13:45:35.844Z,18.60
2018-11-23T13:48:04.458Z,19.57
2018-11-23T13:50:40.393Z,20.23
2018-11-23T13:53:09.239Z,20.40
2018-11-23T13:55:37.850Z,18.57
2018-11-23T13:58:06.638Z,19.50
2018-11-23T14:00:35.222Z,18.73
2018-11-23T14:03:06.315Z,19.13
2018-11-23T14:05:34.939Z,19.97
2018-11-23T14:08:03.954Z,20.47
2018-11-23T14:10:32.832Z,20.07
2018-11-23T14:13:01.482Z,17.50
2018-11-23T14:15:31.429Z,17.53
2018-11-23T14:18:00.726Z,18.30
2018-11-23T14:20:29.718Z,17.77
2018-11-23T14:22:58.293Z,18.77
2018-11-23T14:25:28.609Z,18.33
2018-11-23T14:27:57.721Z,20.17
2018-11-23T14:30:27.838Z,21.93
2018-11-23T14:32:56.563Z,23.03
2018-11-23T14:35:26.979Z,23.43
2018-11-23T14:37:56.431Z,25.67
2018-11-23T14:40:25.275Z,23.73
2018-11-23T14:42:54.216Z,23.27
2018-11-23T14:45:25.594Z,23.43
2018-11-23T14:47:55.276Z,25.17
2018-11-23T14:50:25.405Z,25.97
2018-11-23T14:52:54.986Z,23.27
2018-11-23T14:55:23.790Z,24.80
2018-11-23T14:57:52.414Z,27.53
2018-11-23T15:00:23.731Z,25.40
2018-11-23T15:02:53.755Z,26.37
2018-11-23T15:05:22.384Z,25.50
2018-11-23T15:07:51.016Z,26.17
2018-11-23T15:10:21.183Z,24.90
2018-11-23T15:12:51.118Z,23.97
2018-11-23T15:15:20.973Z,24.50
2018-11-23T15:17:50.494Z,25.77
2018-11-23T15:20:20.796Z,27.00
2018-11-23T15:22:51.114Z,28.30
2018-11-23T15:25:19.750Z,27.87
2018-11-23T15:27:48.349Z,26.47
2018-11-23T15:30:22.383Z,27.67
2018-11-23T15:32:50.977Z,27.13
2018-11-23T15:35:19.573Z,27.17
2018-11-23T15:37:48.138Z,26.83
2018-11-23T15:40:20.965Z,40.07
2018-11-23T15:42:50.403Z,30.27
2018-11-23T15:45:23.243Z,30.63
2018-11-23T15:47:52.082Z,28.30
2018-11-23T15:50:22.022Z,28.33
2018-11-23T15:52:50.767Z,27.20
2018-11-23T15:55:21.756Z,27.43
2018-11-23T15:57:51.338Z,25.53
2018-11-23T16:00:22.914Z,27.47
2018-11-23T16:02:51.677Z,28.70
2018-11-23T16:05:20.436Z,27.03
2018-11-23T16:07:49.488Z,26.53
2018-11-23T16:10:20.509Z,26.50
2018-11-23T16:12:50.190Z,25.80
2018-11-23T16:15:19.636Z,27.03
2018-11-23T16:17:48.685Z,29.67
2018-11-23T16:20:20.114Z,29.33
2018-11-23T16:22:49.954Z,28.67
2018-11-23T16:25:18.687Z,30.40
2018-11-23T16:27:48.662Z,28.67
2018-11-23T16:30:21.485Z,28.60
2018-11-23T16:32:51.257Z,28.63
2018-11-23T16:35:21.621Z,29.80
2018-11-23T16:37:50.685Z,28.90
2018-11-23T16:40:21.059Z,30.17
2018-11-23T16:42:49.668Z,27.60
2018-11-23T16:45:22.388Z,28.93
2018-11-23T16:47:51.701Z,30.73
2018-11-23T16:50:20.271Z,29.30
2018-11-23T16:52:49.806Z,29.30
2018-11-23T16:55:19.943Z,29.07
2018-11-23T16:57:51.367Z,29.17
2018-11-23T17:00:22.412Z,34.60
2018-11-23T17:02:51.081Z,32.30
2018-11-23T17:05:21.286Z,30.70
2018-11-23T17:07:49.890Z,28.60
2018-11-23T17:10:19.389Z,30.20
2018-11-23T17:12:52.602Z,32.27
2018-11-23T17:15:23.590Z,30.37
2018-11-23T17:17:52.349Z,48.23
2018-11-23T17:20:22.292Z,68.03
2018-11-23T17:22:51.933Z,82.80
2018-11-23T17:25:21.718Z,79.53
2018-11-23T17:27:51.230Z,79.63
2018-11-23T17:30:21.387Z,60.63
2018-11-23T17:32:49.983Z,32.77
2018-11-23T17:35:26.881Z,31.57
2018-11-23T17:37:56.286Z,31.03
2018-11-23T17:40:27.166Z,30.63
2018-11-23T17:43:00.369Z,31.10
2018-11-23T17:45:31.066Z,30.10
2018-11-23T17:47:59.893Z,31.27
2018-11-23T17:50:32.924Z,31.07
2018-11-23T17:53:07.217Z,29.33
2018-11-23T17:55:36.033Z,28.43
2018-11-23T17:58:04.849Z,30.27
2018-11-23T18:00:39.194Z,31.73
2018-11-23T18:03:03.901Z,31.27
2018-11-23T18:05:37.159Z,32.43
2018-11-23T18:08:06.319Z,33.83
2018-11-23T18:10:35.216Z,30.80
2018-11-23T18:13:03.998Z,29.77
2018-11-23T18:15:33.818Z,30.07
2018-11-23T18:18:03.425Z,30.97
2018-11-23T18:20:32.548Z,30.33
2018-11-23T18:23:05.721Z,30.57
2018-11-23T18:25:36.914Z,28.83
2018-11-23T18:28:05.837Z,29.97
2018-11-23T18:30:35.082Z,28.60
2018-11-23T18:33:06.642Z,30.43
2018-11-23T18:35:35.238Z,29.47
2018-11-23T18:38:03.912Z,30.90
2018-11-23T18:40:37.434Z,30.17
2018-11-23T18:43:01.629Z,29.57
2018-11-23T18:45:30.312Z,30.40
2018-11-23T18:47:59.406Z,29.53
2018-11-23T18:50:27.989Z,30.00
2018-11-23T18:52:56.606Z,28.63
2018-11-23T18:55:25.194Z,30.63
2018-11-23T18:57:54.109Z,32.67
2018-11-23T19:00:22.707Z,30.07
2018-11-23T19:02:51.326Z,30.40
2018-11-23T19:05:21.416Z,29.60
2018-11-23T19:07:50.043Z,31.80
2018-11-23T19:10:18.634Z,30.57
2018-11-23T19:12:47.277Z,28.57
2018-11-23T19:15:25.322Z,29.23
2018-11-23T19:17:46.545Z,29.40
2018-11-23T19:22:52.466Z,28.27
2018-11-23T19:25:21.070Z,28.40
2018-11-23T19:27:49.665Z,30.17
2018-11-23T19:30:28.055Z,28.47
2018-11-23T19:32:50.138Z,28.70
2018-11-23T19:35:19.140Z,29.00
2018-11-23T19:37:47.718Z,31.70
2018-11-23T19:40:16.757Z,30.93
2018-11-23T19:42:45.861Z,28.63
2018-11-23T19:45:17.617Z,26.93
2018-11-23T19:47:46.177Z,27.50
2018-11-23T19:50:18.355Z,27.90
2018-11-23T19:52:46.982Z,26.70
2018-11-23T19:55:17.036Z,27.90
2018-11-23T19:57:45.610Z,27.43
2018-11-23T20:00:24.001Z,25.40
2018-11-23T20:02:56.406Z,25.43
2018-11-23T20:05:40.391Z,25.80
2018-11-23T20:08:22.436Z,27.17
2018-11-23T20:10:57.693Z,25.47
2018-11-23T20:13:35.614Z,26.10
2018-11-23T20:16:09.296Z,26.77
2018-11-23T20:18:44.254Z,26.33
2018-11-23T20:21:21.569Z,25.27
2018-11-23T20:23:58.789Z,25.83
2018-11-23T20:26:27.573Z,26.80
2018-11-23T20:28:57.405Z,26.53
2018-11-23T20:31:26.082Z,25.53
2018-11-23T20:33:54.757Z,26.40
2018-11-23T20:36:27.846Z,26.97
2018-11-23T20:38:58.527Z,25.90
2018-11-23T20:41:27.525Z,24.17
2018-11-23T20:43:56.143Z,25.03
2018-11-23T20:46:24.759Z,24.47
2018-11-23T20:48:53.317Z,25.90
2018-11-23T20:51:21.920Z,26.30
2018-11-23T20:53:50.566Z,23.70
2018-11-23T20:56:19.208Z,28.27
2018-11-23T20:58:48.342Z,26.67
2018-11-23T21:01:17.614Z,26.90
2018-11-23T21:03:46.202Z,30.30
2018-11-23T21:06:14.823Z,28.47
2018-11-23T21:08:43.407Z,26.00
2018-11-23T21:11:13.548Z,26.43
2018-11-23T21:13:44.076Z,25.73
2018-11-23T21:16:12.744Z,25.77
2018-11-23T21:18:41.452Z,26.60
2018-11-23T21:21:10.170Z,26.00
2018-11-23T21:23:38.762Z,27.07
2018-11-23T21:26:07.384Z,24.47
2018-11-23T21:28:35.965Z,26.43
2018-11-23T21:31:04.596Z,24.77
2018-11-23T21:33:35.980Z,25.47
2018-11-23T21:36:07.170Z,23.83
2018-11-23T21:38:39.810Z,22.87
2018-11-23T21:41:08.519Z,24.27
2018-11-23T21:43:37.099Z,24.13
2018-11-23T21:46:08.165Z,24.60
2018-11-23T21:48:37.123Z,24.13
2018-11-23T21:51:06.328Z,26.10
2018-11-23T21:53:38.291Z,24.17
2018-11-23T21:56:09.943Z,22.70
2018-11-23T21:58:40.589Z,23.60
2018-11-23T22:01:09.309Z,24.23
2018-11-23T22:03:39.834Z,27.33
2018-11-23T22:06:08.594Z,26.17
2018-11-23T22:08:37.420Z,24.70
2018-11-23T22:11:06.442Z,26.23
2018-11-23T22:13:34.995Z,24.97
2018-11-23T22:16:03.606Z,27.67
2018-11-23T22:18:32.403Z,23.83
2018-11-23T22:21:00.991Z,26.43
2018-11-23T22:23:29.583Z,45.00
2018-11-23T22:25:58.904Z,29.33
2018-11-23T22:28:28.710Z,25.30
2018-11-23T22:30:57.945Z,25.43
2018-11-23T22:33:28.031Z,24.50
2018-11-23T22:35:58.493Z,24.13
2018-11-23T22:38:28.314Z,24.97
2018-11-23T22:40:56.903Z,25.13
2018-11-23T22:43:26.777Z,25.03
2018-11-23T22:45:56.916Z,24.80
2018-11-23T22:48:25.639Z,25.30
2018-11-23T22:50:57.958Z,22.30
2018-11-23T22:53:27.291Z,23.07
2018-11-23T22:55:55.895Z,24.50
2018-11-23T22:58:25.740Z,24.50
2018-11-23T23:00:59.695Z,23.40
2018-11-23T23:03:28.597Z,25.10
2018-11-23T23:05:58.843Z,21.93
2018-11-23T23:08:28.846Z,23.60
2018-11-23T23:10:58.330Z,21.33
2018-11-23T23:13:27.289Z,23.37
2018-11-23T23:15:55.898Z,21.67
2018-11-23T23:18:26.236Z,21.90
2018-11-23T23:20:56.161Z,22.00
2018-11-23T23:23:24.778Z,23.60
2018-11-23T23:25:54.220Z,22.40
2018-11-23T23:28:22.916Z,24.20
2018-11-23T23:30:52.026Z,23.20
2018-11-23T23:33:20.814Z,23.43
2018-11-23T23:35:50.454Z,24.17
2018-11-23T23:38:19.370Z,23.67
2018-11-23T23:40:48.126Z,23.67
2018-11-23T23:43:18.137Z,22.97
2018-11-23T23:45:47.477Z,23.37
2018-11-23T23:48:17.168Z,24.37
2018-11-23T23:50:46.006Z,23.03
2018-11-23T23:53:15.495Z,22.73
2018-11-23T23:55:44.771Z,22.77
2018-11-23T23:58:15.411Z,24.20
